x

Tanner Bank - 121nm West Of San Diego, Ca (46047) Wave Buoy

2:50 - Tue 30th Jun 2015 All times are PDT. -7 hours from GMT.

  • Sig Wave height 5.2ft
  • Swell Direction
  • Peak Period 7s
  • Average Period 6s
  • Wind
    16mph, 20mph gusts
  • Sea Temp 61°f
  • Aire Temp 60°f
  • Sea Pressure 1012.6mb
  • Tanner Bank - 121nm West Of San Diego, Ca
  • Tanner Bank - 121nm West Of San Diego, Ca

More Historic Weather Station data

Upgrade to MSW Pro to gain access to the past 30 days of data for over 8000 Wavebouys and Weather Stations around the globe.

Join Pro

Comparision Forecast

View Surf forecast
   
mar 06/30 2:50 5ft 7s 6s 16 20 mph 1012.6mb 61f 60f
1:50 5ft 7s 5s 16 20 mph 1012.7mb 61f 60f
12:50 5ft 7s 5s 16 18 mph 1013mb 62f 60f
lun 06/29 11:50 5.5ft 7s 5s 13 18 mph 1013.4mb 62f 60f
10:50 6ft 7s 5s 16 18 mph 1013.8mb 62f 60f
9:50 6ft 7s 5s 16 18 mph 1014mb 62f 60f
8:50 5.5ft 7s 5s 18 22 mph 1012.5mb 62f 60f
7:50 6ft 7s 5s 20 25 mph 1011.7mb 62f 60f
6:50 6ft 7s 5s 20 22 mph 1012.1mb 62f 60f
5:50 6ft 7s 5s 22 25 mph 1012mb 62f 61f
4:50 5.5ft 7s 5s 20 25 mph 1012.7mb 62f 61f
3:50 5.5ft 7s 5s 20 22 mph 1013.4mb 62f 60f
2:50 6ft 7s 5s 18 22 mph 1013.9mb 62f 61f
1:50 6.5ft 7s 5s 20 25 mph 1013.7mb 62f 60f
12:50 7ft 7s 6s 20 22 mph 1014.3mb 62f 60f
11:50 7ft 7s 6s 18 22 mph 1014.4mb 61f 60f
10:50 7ft 7s 6s 20 22 mph 1014.4mb 61f 60f
9:50 7ft 7s 6s 20 25 mph 1014.4mb 61f 60f
8:50 7.5ft 7s 6s 20 25 mph 1014.2mb 61f 60f
7:50 7ft 7s 6s 20 25 mph 1014mb 61f 60f
6:50 7.5ft 7s 6s 22 25 mph 1013.4mb 61f 60f
5:50  -   -   -  22 29 mph 1013.1mb 61f 60f
4:50 7ft 7s 5s 25 29 mph 1012.7mb 61f 60f
3:50 7ft 15s 6s 22 29 mph 1012.2mb 61f 61f
2:50 6ft 7s 5s 20 22 mph 1012.9mb 61f 61f
1:50 6ft 15s 5s 20 27 mph 1012.8mb 61f 61f
12:50 6ft 15s 5s 22 27 mph 1012.9mb 62f 61f
dom 06/28 11:50 6.5ft 6s 5s 20 25 mph 1013.3mb 62f 62f
10:50 7ft 6s 6s 20 25 mph 1013.5mb 62f 62f
9:50 7ft 6s 5s 22 29 mph 1013.2mb 62f 61f
8:50 6.5ft 6s 5s 25 29 mph 1012.8mb 62f 61f
7:50 6ft 6s 5s 22 25 mph 1012.9mb 62f 62f
6:50 6ft 16s 5s 22 27 mph 1012.7mb 62f 62f
5:50 6ft 16s 5s 22 27 mph 1012.9mb 62f 62f
4:50 6ft 16s 5s 22 27 mph 1013.2mb 62f 62f
3:50 6ft 16s 5s 25 29 mph 1013.6mb 62f 61f
2:50 5.5ft 6s 5s 25 29 mph 1014.2mb 62f 61f
1:50 6ft 9s 5s 22 27 mph 1015mb 61f 61f
11:50 6ft 16s 5s 20 25 mph 1015.9mb 61f 61f
10:50  -   -   -  20 25 mph 1015.3mb 61f 60f
9:50 6.5ft 6s 5s 22 25 mph 1015.3mb 61f 60f
8:50 6ft 6s 5s 20 25 mph 1015.2mb 61f 60f
7:50 6.5ft 16s 5s 20 25 mph 1014.7mb 61f 61f
6:50 6ft 16s 6s 20 25 mph 1014.6mb 61f 61f
5:50 5.5ft 16s 5s 22 27 mph 1013.9mb 61f 61f
4:50 5.5ft 16s 5s 22 29 mph 1013.7mb 61f 61f
3:50 5.5ft 9s 6s 20 25 mph 1013.5mb 61f 62f
2:50 5ft 16s 6s 20 22 mph 1013.8mb 62f 62f
1:50 5ft 10s 6s 16 20 mph 1014.3mb 62f 62f
12:50 5ft 16s 6s 18 20 mph 1014.3mb 61f 62f
sáb 06/27 11:50 5ft 10s 5s 18 22 mph 1014mb 61f 62f
10:50 5ft 10s 5s 18 22 mph 1014.1mb 61f 62f
9:50 5ft 9s 5s 18 20 mph 1014mb 62f 62f
8:50 4.5ft 9s 5s 18 20 mph 1013.8mb 62f 62f
7:50 4.5ft 8s 5s 20 25 mph 1014mb 62f 61f
6:50 4.5ft 8s 6s 18 20 mph 1014.7mb 62f 61f
5:50 5ft 8s 6s 13 18 mph 1015.3mb 62f 61f
4:50  -   -   -  13 18 mph 1015.5mb 62f 61f
3:50 4.5ft 17s 5s 18 20 mph 1015.1mb 62f 61f
2:50 4.5ft 8s 6s 18 20 mph 1015.9mb 62f 61f
1:50 4.5ft 9s 6s 18 20 mph 1016.3mb 62f 61f
12:50 4.5ft 9s 6s 13 18 mph 1017.2mb 62f 61f
11:50 4.5ft 8s 6s 11 13 mph 1017.9mb 62f 61f
10:50 4.5ft 9s 6s 13 16 mph 1017.7mb 62f 60f
9:50 4.5ft 8s 6s 11 16 mph 1017.6mb 62f 60f
8:50  -   -   -  11 16 mph 1017.3mb 62f 60f
7:50 4.5ft 8s 6s 13 18 mph 1016.6mb 62f 60f
6:50 4.5ft 9s 6s 13 16 mph 1016.2mb 62f 60f
5:50 4ft 13s 6s 16 20 mph 1015.6mb 62f 60f
4:50 4ft 9s 6s 13 18 mph 1015.3mb 62f 61f
3:50 4.5ft 9s 6s 13 18 mph 1014.7mb 61f 61f
2:50 4ft 8s 5s 13 18 mph 1015mb 62f 61f
1:50 4.5ft 8s 5s 16 20 mph 1015.1mb 62f 61f
12:50 4.5ft 9s 5s 16 18 mph 1015.3mb 62f 61f
vie 06/26 11:50 4ft 8s 5s 18 20 mph 1015.4mb 62f 61f
10:50 4.5ft 8s 5s 18 20 mph 1015.5mb 62f 61f
9:50 4ft 9s 5s 18 22 mph 1015.2mb 62f 61f
8:50 4ft 8s 5s 13 16 mph 1014.7mb 62f 62f
7:50 4ft 8s 6s 16 20 mph 1014.8mb 62f 62f
6:50 3.5ft 8s 6s 13 16 mph 1014.7mb 62f 62f
5:50 3.5ft 8s 6s 11 13 mph 1014.6mb 62f 62f
4:50 3.5ft 14s 6s 11 13 mph 1014.7mb 62f 62f
3:50 3.5ft 8s 6s 13 16 mph 1015.1mb 62f 62f
2:50 3.5ft 8s 6s 13 16 mph 1015.4mb 63f 62f
1:50 3.5ft 8s 7s 11 16 mph 1016.1mb 63f 62f
12:50 3.5ft 13s 6s 11 13 mph 1016.5mb 63f 61f
11:50 4ft 14s 6s 9 11 mph 1016.5mb 62f 61f